sensor_id;sensor_type;location;lat;lon;timestamp;pressure;altitude;pressure_sealevel;temperature;humidity
75063;BME280;63981;51.052;13.754;2023-08-06T00:00:12;99663.22;;;16.13;91.19
75063;BME280;63981;51.052;13.754;2023-08-06T00:02:42;99656.50;;;16.19;91.34
75063;BME280;63981;51.052;13.754;2023-08-06T00:05:08;99647.72;;;16.27;91.82
75063;BME280;63981;51.052;13.754;2023-08-06T00:07:35;99641.97;;;16.31;90.93
75063;BME280;63981;51.052;13.754;2023-08-06T00:10:02;99629.66;;;16.30;90.79
75063;BME280;63981;51.052;13.754;2023-08-06T00:12:29;99623.66;;;16.28;91.10
75063;BME280;63981;51.052;13.754;2023-08-06T00:14:55;99618.47;;;16.27;91.38
75063;BME280;63981;51.052;13.754;2023-08-06T00:17:21;99612.94;;;16.20;90.90
75063;BME280;63981;51.052;13.754;2023-08-06T00:19:48;99616.75;;;16.17;91.51
75063;BME280;63981;51.052;13.754;2023-08-06T00:22:14;99608.69;;;16.09;91.66
75063;BME280;63981;51.052;13.754;2023-08-06T00:24:40;99611.34;;;16.09;91.92
75063;BME280;63981;51.052;13.754;2023-08-06T00:27:08;99610.81;;;16.06;91.69
75063;BME280;63981;51.052;13.754;2023-08-06T00:29:34;99607.31;;;16.05;92.15
75063;BME280;63981;51.052;13.754;2023-08-06T00:32:01;99611.66;;;16.06;92.51
75063;BME280;63981;51.052;13.754;2023-08-06T00:34:27;99621.31;;;16.07;92.62
75063;BME280;63981;51.052;13.754;2023-08-06T00:36:53;99615.97;;;16.07;92.28
75063;BME280;63981;51.052;13.754;2023-08-06T00:39:20;99617.97;;;16.05;92.36
75063;BME280;63981;51.052;13.754;2023-08-06T00:41:46;99604.22;;;16.10;92.80
75063;BME280;63981;51.052;13.754;2023-08-06T00:44:14;99604.44;;;16.16;92.69
75063;BME280;63981;51.052;13.754;2023-08-06T00:46:40;99607.09;;;16.16;92.62
75063;BME280;63981;51.052;13.754;2023-08-06T00:49:07;99600.50;;;16.20;92.20
75063;BME280;63981;51.052;13.754;2023-08-06T00:51:34;99597.66;;;16.22;92.65
75063;BME280;63981;51.052;13.754;2023-08-06T00:54:02;99596.00;;;16.21;92.36
75063;BME280;63981;51.052;13.754;2023-08-06T00:56:28;99590.31;;;16.16;92.61
75063;BME280;63981;51.052;13.754;2023-08-06T00:58:54;99584.59;;;16.11;92.69
75063;BME280;63981;51.052;13.754;2023-08-06T01:01:22;99581.94;;;16.11;92.63
75063;BME280;63981;51.052;13.754;2023-08-06T01:03:49;99576.78;;;16.09;92.95
75063;BME280;63981;51.052;13.754;2023-08-06T01:06:19;99581.78;;;16.12;93.21
75063;BME280;63981;51.052;13.754;2023-08-06T01:08:53;99574.50;;;16.14;92.65
75063;BME280;63981;51.052;13.754;2023-08-06T01:11:27;99571.00;;;16.14;93.16
75063;BME280;63981;51.052;13.754;2023-08-06T01:14:02;99568.13;;;16.07;92.70
75063;BME280;63981;51.052;13.754;2023-08-06T01:16:35;99561.31;;;16.05;93.69
75063;BME280;63981;51.052;13.754;2023-08-06T01:19:03;99556.13;;;16.03;93.00
75063;BME280;63981;51.052;13.754;2023-08-06T01:21:31;99561.75;;;16.00;93.36
75063;BME280;63981;51.052;13.754;2023-08-06T01:23:57;99551.09;;;16.00;93.44
75063;BME280;63981;51.052;13.754;2023-08-06T01:26:27;99553.25;;;15.97;93.45
75063;BME280;63981;51.052;13.754;2023-08-06T01:29:00;99552.03;;;15.91;94.27
75063;BME280;63981;51.052;13.754;2023-08-06T01:31:30;99535.78;;;15.76;94.92
75063;BME280;63981;51.052;13.754;2023-08-06T01:33:58;99537.06;;;15.72;95.69
75063;BME280;63981;51.052;13.754;2023-08-06T01:36:25;99538.50;;;15.67;95.58
75063;BME280;63981;51.052;13.754;2023-08-06T01:38:54;99541.84;;;15.69;96.02
75063;BME280;63981;51.052;13.754;2023-08-06T01:41:20;99535.63;;;15.78;95.99
75063;BME280;63981;51.052;13.754;2023-08-06T01:43:47;99529.34;;;15.79;96.09
75063;BME280;63981;51.052;13.754;2023-08-06T01:46:13;99531.53;;;15.83;96.00
75063;BME280;63981;51.052;13.754;2023-08-06T01:48:40;99528.13;;;15.91;95.69
75063;BME280;63981;51.052;13.754;2023-08-06T01:51:06;99531.13;;;15.96;95.23
75063;BME280;63981;51.052;13.754;2023-08-06T01:53:33;99527.88;;;16.02;95.51
75063;BME280;63981;51.052;13.754;2023-08-06T01:56:01;99524.38;;;16.02;95.04
75063;BME280;63981;51.052;13.754;2023-08-06T01:58:27;99530.44;;;16.12;95.56
75063;BME280;63981;51.052;13.754;2023-08-06T02:00:53;99531.88;;;16.24;95.40
75063;BME280;63981;51.052;13.754;2023-08-06T02:03:20;99526.63;;;16.32;95.06
75063;BME280;63981;51.052;13.754;2023-08-06T02:05:48;99526.47;;;16.34;95.44
75063;BME280;63981;51.052;13.754;2023-08-06T02:08:14;99513.50;;;16.39;94.82
75063;BME280;63981;51.052;13.754;2023-08-06T02:10:41;99528.34;;;16.41;94.95
75063;BME280;63981;51.052;13.754;2023-08-06T02:13:09;99527.88;;;16.46;94.51
75063;BME280;63981;51.052;13.754;2023-08-06T02:15:35;99531.38;;;16.46;93.48
75063;BME280;63981;51.052;13.754;2023-08-06T02:18:01;99531.22;;;16.48;93.49
75063;BME280;63981;51.052;13.754;2023-08-06T02:20:28;99527.41;;;16.50;93.14
75063;BME280;63981;51.052;13.754;2023-08-06T02:22:54;99531.88;;;16.50;93.77
75063;BME280;63981;51.052;13.754;2023-08-06T02:25:21;99528.53;;;16.48;93.76
75063;BME280;63981;51.052;13.754;2023-08-06T02:27:47;99533.19;;;16.46;93.98
75063;BME280;63981;51.052;13.754;2023-08-06T02:30:15;99519.91;;;16.46;93.18
75063;BME280;63981;51.052;13.754;2023-08-06T02:32:41;99519.38;;;16.42;94.00
75063;BME280;63981;51.052;13.754;2023-08-06T02:35:08;99524.53;;;16.44;94.17
75063;BME280;63981;51.052;13.754;2023-08-06T02:37:34;99514.91;;;16.25;94.08
75063;BME280;63981;51.052;13.754;2023-08-06T02:40:01;99522.06;;;16.25;94.83
75063;BME280;63981;51.052;13.754;2023-08-06T02:42:28;99512.16;;;16.35;94.43
75063;BME280;63981;51.052;13.754;2023-08-06T02:44:54;99513.16;;;16.34;94.67
75063;BME280;63981;51.052;13.754;2023-08-06T02:47:25;99509.34;;;16.36;94.32
75063;BME280;63981;51.052;13.754;2023-08-06T02:49:51;99495.28;;;16.44;93.35
75063;BME280;63981;51.052;13.754;2023-08-06T02:52:19;99498.78;;;16.44;93.38
75063;BME280;63981;51.052;13.754;2023-08-06T02:54:46;99500.38;;;16.37;93.29
75063;BME280;63981;51.052;13.754;2023-08-06T02:57:14;99503.19;;;16.36;93.80
75063;BME280;63981;51.052;13.754;2023-08-06T02:59:40;99499.09;;;16.41;93.96
75063;BME280;63981;51.052;13.754;2023-08-06T03:02:11;99488.53;;;16.32;92.38
75063;BME280;63981;51.052;13.754;2023-08-06T03:04:59;99490.00;;;16.26;93.48
75063;BME280;63981;51.052;13.754;2023-08-06T03:07:29;99490.78;;;16.18;93.28
75063;BME280;63981;51.052;13.754;2023-08-06T03:10:03;99478.25;;;16.11;93.40
75063;BME280;63981;51.052;13.754;2023-08-06T03:12:30;99484.09;;;16.14;93.60
75063;BME280;63981;51.052;13.754;2023-08-06T03:14:58;99474.25;;;16.07;93.34
75063;BME280;63981;51.052;13.754;2023-08-06T03:17:24;99471.06;;;16.03;93.27
75063;BME280;63981;51.052;13.754;2023-08-06T03:19:51;99473.09;;;16.09;94.43
75063;BME280;63981;51.052;13.754;2023-08-06T03:22:20;99463.59;;;16.07;93.80
75063;BME280;63981;51.052;13.754;2023-08-06T03:24:50;99464.38;;;15.99;93.64
75063;BME280;63981;51.052;13.754;2023-08-06T03:27:17;99457.69;;;15.95;93.62
75063;BME280;63981;51.052;13.754;2023-08-06T03:29:43;99459.53;;;15.95;93.86
75063;BME280;63981;51.052;13.754;2023-08-06T03:32:10;99454.13;;;15.86;93.78
75063;BME280;63981;51.052;13.754;2023-08-06T03:34:36;99450.13;;;15.82;94.10
75063;BME280;63981;51.052;13.754;2023-08-06T03:37:03;99444.81;;;15.82;94.18
75063;BME280;63981;51.052;13.754;2023-08-06T03:39:31;99448.66;;;15.88;94.63
75063;BME280;63981;51.052;13.754;2023-08-06T03:41:58;99433.88;;;15.85;93.98
75063;BME280;63981;51.052;13.754;2023-08-06T03:44:26;99439.09;;;15.95;93.94
75063;BME280;63981;51.052;13.754;2023-08-06T03:46:54;99440.69;;;15.88;93.65
75063;BME280;63981;51.052;13.754;2023-08-06T03:49:20;99436.09;;;15.90;94.47
75063;BME280;63981;51.052;13.754;2023-08-06T03:51:47;99430.97;;;15.97;94.04
75063;BME280;63981;51.052;13.754;2023-08-06T03:54:13;99431.88;;;16.05;94.18
75063;BME280;63981;51.052;13.754;2023-08-06T03:56:41;99427.72;;;16.11;94.37
75063;BME280;63981;51.052;13.754;2023-08-06T03:59:07;99429.97;;;16.23;94.46
75063;BME280;63981;51.052;13.754;2023-08-06T04:01:34;99422.31;;;16.20;94.08
75063;BME280;63981;51.052;13.754;2023-08-06T04:04:00;99415.50;;;16.18;93.30
75063;BME280;63981;51.052;13.754;2023-08-06T04:06:26;99407.97;;;16.13;92.89
75063;BME280;63981;51.052;13.754;2023-08-06T04:08:53;99404.75;;;16.02;93.22
75063;BME280;63981;51.052;13.754;2023-08-06T04:11:19;99407.03;;;15.97;93.64
75063;BME280;63981;51.052;13.754;2023-08-06T04:13:51;99399.72;;;15.99;93.82
75063;BME280;63981;51.052;13.754;2023-08-06T04:16:28;99396.09;;;16.00;93.92
75063;BME280;63981;51.052;13.754;2023-08-06T04:18:54;99391.75;;;15.99;93.80
75063;BME280;63981;51.052;13.754;2023-08-06T04:21:21;99391.09;;;15.97;93.68
75063;BME280;63981;51.052;13.754;2023-08-06T04:23:47;99392.50;;;15.83;94.52
75063;BME280;63981;51.052;13.754;2023-08-06T04:26:14;99393.84;;;15.87;94.99
75063;BME280;63981;51.052;13.754;2023-08-06T04:28:40;99394.75;;;15.96;94.90
75063;BME280;63981;51.052;13.754;2023-08-06T04:31:09;99387.44;;;15.98;94.10
75063;BME280;63981;51.052;13.754;2023-08-06T04:33:39;99379.78;;;15.95;94.59
75063;BME280;63981;51.052;13.754;2023-08-06T04:36:09;99376.66;;;15.99;94.44
75063;BME280;63981;51.052;13.754;2023-08-06T04:38:35;99379.19;;;16.09;94.36
75063;BME280;63981;51.052;13.754;2023-08-06T04:41:02;99374.44;;;16.20;94.07
75063;BME280;63981;51.052;13.754;2023-08-06T04:43:28;99369.47;;;16.26;93.83
75063;BME280;63981;51.052;13.754;2023-08-06T04:45:56;99375.28;;;16.21;93.13
75063;BME280;63981;51.052;13.754;2023-08-06T04:48:23;99370.63;;;16.15;92.72
75063;BME280;63981;51.052;13.754;2023-08-06T04:50:50;99368.09;;;16.13;92.88
75063;BME280;63981;51.052;13.754;2023-08-06T04:53:17;99362.75;;;16.05;92.69
75063;BME280;63981;51.052;13.754;2023-08-06T04:55:43;99362.84;;;15.96;92.85
75063;BME280;63981;51.052;13.754;2023-08-06T04:58:10;99365.00;;;15.92;92.99
75063;BME280;63981;51.052;13.754;2023-08-06T05:00:37;99351.97;;;15.81;93.36
75063;BME280;63981;51.052;13.754;2023-08-06T05:03:03;99361.13;;;15.86;94.21
75063;BME280;63981;51.052;13.754;2023-08-06T05:05:31;99369.81;;;15.97;93.98
75063;BME280;63981;51.052;13.754;2023-08-06T05:07:57;99356.91;;;16.02;93.36
75063;BME280;63981;51.052;13.754;2023-08-06T05:10:24;99354.78;;;16.13;93.78
75063;BME280;63981;51.052;13.754;2023-08-06T05:12:51;99351.69;;;16.26;93.82
75063;BME280;63981;51.052;13.754;2023-08-06T05:15:17;99337.94;;;16.31;93.90
75063;BME280;63981;51.052;13.754;2023-08-06T05:17:44;99354.63;;;16.41;92.78
75063;BME280;63981;51.052;13.754;2023-08-06T05:20:11;99350.41;;;16.38;92.63
75063;BME280;63981;51.052;13.754;2023-08-06T05:22:39;99354.75;;;16.39;92.80
75063;BME280;63981;51.052;13.754;2023-08-06T05:25:06;99350.91;;;16.34;93.08
75063;BME280;63981;51.052;13.754;2023-08-06T05:27:32;99348.91;;;16.36;92.84
75063;BME280;63981;51.052;13.754;2023-08-06T05:29:59;99336.81;;;16.41;93.31
75063;BME280;63981;51.052;13.754;2023-08-06T05:32:25;99338.13;;;16.37;91.97
75063;BME280;63981;51.052;13.754;2023-08-06T05:34:51;99337.72;;;16.16;92.13
75063;BME280;63981;51.052;13.754;2023-08-06T05:37:17;99329.84;;;16.06;92.58
75063;BME280;63981;51.052;13.754;2023-08-06T05:39:45;99324.25;;;16.17;93.73
75063;BME280;63981;51.052;13.754;2023-08-06T05:42:11;99321.44;;;16.27;93.42
75063;BME280;63981;51.052;13.754;2023-08-06T05:44:38;99316.50;;;16.32;93.07
75063;BME280;63981;51.052;13.754;2023-08-06T05:47:04;99319.00;;;16.34;92.74
75063;BME280;63981;51.052;13.754;2023-08-06T05:49:30;99318.84;;;16.35;92.87
75063;BME280;63981;51.052;13.754;2023-08-06T05:51:57;99326.03;;;16.43;93.06
75063;BME280;63981;51.052;13.754;2023-08-06T05:54:23;99321.38;;;16.53;93.34
75063;BME280;63981;51.052;13.754;2023-08-06T05:56:51;99322.41;;;16.60;93.06
75063;BME280;63981;51.052;13.754;2023-08-06T05:59:17;99333.13;;;16.68;91.83
75063;BME280;63981;51.052;13.754;2023-08-06T06:01:44;99330.28;;;16.70;90.64
75063;BME280;63981;51.052;13.754;2023-08-06T06:04:10;99331.47;;;16.75;90.70
75063;BME280;63981;51.052;13.754;2023-08-06T06:06:36;99331.00;;;16.80;90.40
75063;BME280;63981;51.052;13.754;2023-08-06T06:09:02;99332.13;;;16.77;90.89
75063;BME280;63981;51.052;13.754;2023-08-06T06:11:29;99328.16;;;16.82;90.86
75063;BME280;63981;51.052;13.754;2023-08-06T06:13:56;99327.94;;;16.67;91.72
75063;BME280;63981;51.052;13.754;2023-08-06T06:16:23;99333.38;;;16.57;91.92
75063;BME280;63981;51.052;13.754;2023-08-06T06:18:49;99327.47;;;16.71;92.22
75063;BME280;63981;51.052;13.754;2023-08-06T06:21:15;99327.47;;;16.79;91.93
75063;BME280;63981;51.052;13.754;2023-08-06T06:23:42;99336.13;;;16.90;91.12
75063;BME280;63981;51.052;13.754;2023-08-06T06:26:08;99322.66;;;16.91;91.26
75063;BME280;63981;51.052;13.754;2023-08-06T06:28:36;99315.50;;;16.92;90.27
75063;BME280;63981;51.052;13.754;2023-08-06T06:31:03;99330.19;;;16.96;90.20
75063;BME280;63981;51.052;13.754;2023-08-06T06:33:30;99319.88;;;17.09;90.72
75063;BME280;63981;51.052;13.754;2023-08-06T06:35:56;99315.22;;;17.19;89.57
75063;BME280;63981;51.052;13.754;2023-08-06T06:38:23;99318.53;;;17.13;90.37
75063;BME280;63981;51.052;13.754;2023-08-06T06:40:53;99312.22;;;17.22;90.75
75063;BME280;63981;51.052;13.754;2023-08-06T06:43:20;99317.19;;;17.17;89.78
75063;BME280;63981;51.052;13.754;2023-08-06T06:45:47;99315.53;;;17.08;89.56
75063;BME280;63981;51.052;13.754;2023-08-06T06:48:19;99326.38;;;17.06;91.18
75063;BME280;63981;51.052;13.754;2023-08-06T06:50:47;99325.19;;;17.01;89.33
75063;BME280;63981;51.052;13.754;2023-08-06T06:53:13;99324.53;;;17.07;90.17
75063;BME280;63981;51.052;13.754;2023-08-06T06:55:39;99333.69;;;17.21;89.97
75063;BME280;63981;51.052;13.754;2023-08-06T06:58:06;99330.69;;;17.24;88.72
75063;BME280;63981;51.052;13.754;2023-08-06T07:00:32;99331.69;;;17.31;89.58
75063;BME280;63981;51.052;13.754;2023-08-06T07:02:58;99340.34;;;17.41;89.53
75063;BME280;63981;51.052;13.754;2023-08-06T07:05:26;99336.38;;;17.45;88.60
75063;BME280;63981;51.052;13.754;2023-08-06T07:07:52;99335.53;;;17.36;88.54
75063;BME280;63981;51.052;13.754;2023-08-06T07:10:19;99335.50;;;17.28;88.96
75063;BME280;63981;51.052;13.754;2023-08-06T07:12:45;99329.72;;;17.33;89.25
75063;BME280;63981;51.052;13.754;2023-08-06T07:15:12;99338.00;;;17.30;89.34
75063;BME280;63981;51.052;13.754;2023-08-06T07:17:38;99337.50;;;17.43;89.44
75063;BME280;63981;51.052;13.754;2023-08-06T07:20:06;99335.50;;;17.45;89.21
75063;BME280;63981;51.052;13.754;2023-08-06T07:22:33;99341.34;;;17.56;89.42
75063;BME280;63981;51.052;13.754;2023-08-06T07:25:00;99336.69;;;17.58;88.91
75063;BME280;63981;51.052;13.754;2023-08-06T07:27:27;99335.88;;;17.58;87.57
75063;BME280;63981;51.052;13.754;2023-08-06T07:29:53;99331.03;;;17.53;88.23
75063;BME280;63981;51.052;13.754;2023-08-06T07:32:19;99326.53;;;17.46;89.07
75063;BME280;63981;51.052;13.754;2023-08-06T07:34:46;99331.03;;;17.53;88.79
75063;BME280;63981;51.052;13.754;2023-08-06T07:37:12;99327.38;;;17.46;88.61
75063;BME280;63981;51.052;13.754;2023-08-06T07:39:40;99334.03;;;17.26;89.55
75063;BME280;63981;51.052;13.754;2023-08-06T07:42:08;99331.34;;;17.26;89.85
75063;BME280;63981;51.052;13.754;2023-08-06T07:44:34;99320.53;;;17.27;89.80
75063;BME280;63981;51.052;13.754;2023-08-06T07:47:01;99317.84;;;17.44;89.54
75063;BME280;63981;51.052;13.754;2023-08-06T07:49:27;99315.69;;;17.55;88.32
75063;BME280;63981;51.052;13.754;2023-08-06T07:51:53;99321.38;;;17.60;87.85
75063;BME280;63981;51.052;13.754;2023-08-06T07:54:19;99320.22;;;17.71;88.35
75063;BME280;63981;51.052;13.754;2023-08-06T07:56:47;99318.84;;;17.83;87.00
75063;BME280;63981;51.052;13.754;2023-08-06T07:59:14;99313.50;;;17.91;87.61
75063;BME280;63981;51.052;13.754;2023-08-06T08:01:40;99315.16;;;17.92;86.94
75063;BME280;63981;51.052;13.754;2023-08-06T08:04:06;99314.50;;;17.82;85.51
75063;BME280;63981;51.052;13.754;2023-08-06T08:06:33;99316.50;;;17.88;85.51
75063;BME280;63981;51.052;13.754;2023-08-06T08:09:00;99313.66;;;17.90;85.47
75063;BME280;63981;51.052;13.754;2023-08-06T08:11:26;99316.31;;;17.98;84.18
75063;BME280;63981;51.052;13.754;2023-08-06T08:13:54;99310.34;;;17.88;82.33
75063;BME280;63981;51.052;13.754;2023-08-06T08:16:21;99309.84;;;17.68;83.92
75063;BME280;63981;51.052;13.754;2023-08-06T08:18:47;99308.03;;;17.60;86.18
75063;BME280;63981;51.052;13.754;2023-08-06T08:21:14;99311.84;;;17.66;85.21
75063;BME280;63981;51.052;13.754;2023-08-06T08:23:40;99300.53;;;17.80;86.20
75063;BME280;63981;51.052;13.754;2023-08-06T08:26:08;99302.19;;;17.65;83.91
75063;BME280;63981;51.052;13.754;2023-08-06T08:28:34;99294.19;;;17.65;85.31
75063;BME280;63981;51.052;13.754;2023-08-06T08:31:02;99295.03;;;17.65;85.79
75063;BME280;63981;51.052;13.754;2023-08-06T08:33:28;99278.53;;;17.70;86.29
75063;BME280;63981;51.052;13.754;2023-08-06T08:35:55;99283.56;;;17.73;86.55
75063;BME280;63981;51.052;13.754;2023-08-06T08:38:22;99285.88;;;17.76;87.22
75063;BME280;63981;51.052;13.754;2023-08-06T08:40:51;99286.88;;;17.59;86.56
75063;BME280;63981;51.052;13.754;2023-08-06T08:43:20;99282.88;;;17.55;86.58
75063;BME280;63981;51.052;13.754;2023-08-06T08:45:49;99283.06;;;17.53;86.33
75063;BME280;63981;51.052;13.754;2023-08-06T08:48:19;99279.22;;;17.56;86.99
75063;BME280;63981;51.052;13.754;2023-08-06T08:50:47;99273.88;;;17.64;86.77
75063;BME280;63981;51.052;13.754;2023-08-06T08:53:15;99263.88;;;17.66;86.26
75063;BME280;63981;51.052;13.754;2023-08-06T08:55:43;99268.22;;;17.75;84.78
75063;BME280;63981;51.052;13.754;2023-08-06T08:58:09;99263.34;;;17.87;85.16
75063;BME280;63981;51.052;13.754;2023-08-06T09:00:35;99256.19;;;17.87;82.29
75063;BME280;63981;51.052;13.754;2023-08-06T09:03:05;99257.88;;;17.80;81.76
75063;BME280;63981;51.052;13.754;2023-08-06T09:05:33;99265.69;;;17.82;82.00
75063;BME280;63981;51.052;13.754;2023-08-06T09:08:03;99263.38;;;17.79;82.83
75063;BME280;63981;51.052;13.754;2023-08-06T09:10:29;99262.88;;;17.67;82.69
75063;BME280;63981;51.052;13.754;2023-08-06T09:12:57;99265.22;;;17.54;82.54
75063;BME280;63981;51.052;13.754;2023-08-06T09:15:24;99262.75;;;17.44;82.36
75063;BME280;63981;51.052;13.754;2023-08-06T09:17:51;99264.78;;;17.34;81.58
75063;BME280;63981;51.052;13.754;2023-08-06T09:20:18;99252.13;;;17.28;84.03
75063;BME280;63981;51.052;13.754;2023-08-06T09:22:47;99262.78;;;17.36;84.32
75063;BME280;63981;51.052;13.754;2023-08-06T09:25:21;99250.28;;;17.28;84.73
75063;BME280;63981;51.052;13.754;2023-08-06T09:27:50;99261.25;;;17.42;84.81
75063;BME280;63981;51.052;13.754;2023-08-06T09:30:29;99249.25;;;17.54;85.29
75063;BME280;63981;51.052;13.754;2023-08-06T09:32:56;99253.38;;;17.64;85.62
75063;BME280;63981;51.052;13.754;2023-08-06T09:35:24;99246.22;;;17.65;85.33
75063;BME280;63981;51.052;13.754;2023-08-06T09:37:53;99257.41;;;17.68;85.46
75063;BME280;63981;51.052;13.754;2023-08-06T09:40:27;99259.19;;;17.68;84.61
75063;BME280;63981;51.052;13.754;2023-08-06T09:42:54;99248.38;;;17.86;86.09
75063;BME280;63981;51.052;13.754;2023-08-06T09:45:20;99252.34;;;17.90;84.16
75063;BME280;63981;51.052;13.754;2023-08-06T09:47:48;99251.13;;;18.01;83.66
75063;BME280;63981;51.052;13.754;2023-08-06T09:50:18;99244.53;;;18.19;83.35
75063;BME280;63981;51.052;13.754;2023-08-06T09:52:47;99238.63;;;18.32;82.73
75063;BME280;63981;51.052;13.754;2023-08-06T09:55:16;99241.63;;;18.37;82.51
75063;BME280;63981;51.052;13.754;2023-08-06T09:57:42;99229.78;;;18.40;82.73
75063;BME280;63981;51.052;13.754;2023-08-06T10:00:10;99225.88;;;18.50;81.29
75063;BME280;63981;51.052;13.754;2023-08-06T10:02:40;99223.22;;;18.73;81.14
75063;BME280;63981;51.052;13.754;2023-08-06T10:05:08;99214.50;;;18.79;80.70
75063;BME280;63981;51.052;13.754;2023-08-06T10:07:35;99231.72;;;18.77;80.85
75063;BME280;63981;51.052;13.754;2023-08-06T10:10:03;99215.88;;;18.75;80.48
75063;BME280;63981;51.052;13.754;2023-08-06T10:12:33;99223.13;;;18.90;79.39
75063;BME280;63981;51.052;13.754;2023-08-06T10:15:04;99214.84;;;18.99;79.28
75063;BME280;63981;51.052;13.754;2023-08-06T10:17:33;99206.41;;;18.88;78.47
75063;BME280;63981;51.052;13.754;2023-08-06T10:20:02;99202.09;;;18.86;77.64
75063;BME280;63981;51.052;13.754;2023-08-06T10:22:32;99208.38;;;18.94;78.66
75063;BME280;63981;51.052;13.754;2023-08-06T10:24:59;99210.31;;;19.00;79.72
75063;BME280;63981;51.052;13.754;2023-08-06T10:27:36;99206.69;;;19.15;77.85
75063;BME280;63981;51.052;13.754;2023-08-06T10:30:21;99199.22;;;19.26;77.06
75063;BME280;63981;51.052;13.754;2023-08-06T10:32:49;99201.84;;;19.49;77.87
75063;BME280;63981;51.052;13.754;2023-08-06T10:35:30;99195.50;;;19.79;76.73
75063;BME280;63981;51.052;13.754;2023-08-06T10:38:03;99194.50;;;19.65;75.07
75063;BME280;63981;51.052;13.754;2023-08-06T10:40:31;99180.47;;;19.78;75.25
75063;BME280;63981;51.052;13.754;2023-08-06T10:43:00;99183.78;;;19.65;74.75
75063;BME280;63981;51.052;13.754;2023-08-06T10:45:27;99174.78;;;19.66;75.25
75063;BME280;63981;51.052;13.754;2023-08-06T10:47:55;99169.06;;;19.69;75.76
75063;BME280;63981;51.052;13.754;2023-08-06T10:50:25;99164.59;;;19.91;74.63
75063;BME280;63981;51.052;13.754;2023-08-06T10:52:52;99171.03;;;19.97;75.06
75063;BME280;63981;51.052;13.754;2023-08-06T10:55:22;99169.09;;;20.06;73.46
75063;BME280;63981;51.052;13.754;2023-08-06T10:57:49;99162.47;;;19.87;72.98
75063;BME280;63981;51.052;13.754;2023-08-06T11:00:17;99159.00;;;19.71;73.54
75063;BME280;63981;51.052;13.754;2023-08-06T11:02:43;99154.75;;;19.62;74.23
75063;BME280;63981;51.052;13.754;2023-08-06T11:05:10;99149.88;;;19.66;74.54
75063;BME280;63981;51.052;13.754;2023-08-06T11:07:37;99152.91;;;19.63;72.48
75063;BME280;63981;51.052;13.754;2023-08-06T11:10:05;99152.34;;;19.82;72.39
75063;BME280;63981;51.052;13.754;2023-08-06T11:12:32;99148.09;;;19.88;71.43
75063;BME280;63981;51.052;13.754;2023-08-06T11:14:59;99147.94;;;20.11;71.82
75063;BME280;63981;51.052;13.754;2023-08-06T11:17:27;99148.97;;;20.46;71.79
75063;BME280;63981;51.052;13.754;2023-08-06T11:19:53;99143.81;;;20.94;71.52
75063;BME280;63981;51.052;13.754;2023-08-06T11:22:21;99140.59;;;21.05;69.79
75063;BME280;63981;51.052;13.754;2023-08-06T11:24:48;99140.66;;;21.11;68.84
75063;BME280;63981;51.052;13.754;2023-08-06T11:27:16;99131.69;;;20.98;67.99
75063;BME280;63981;51.052;13.754;2023-08-06T11:29:44;99135.91;;;20.57;70.17
75063;BME280;63981;51.052;13.754;2023-08-06T11:32:10;99131.69;;;20.48;70.46
75063;BME280;63981;51.052;13.754;2023-08-06T11:34:39;99134.13;;;20.28;71.65
75063;BME280;63981;51.052;13.754;2023-08-06T11:37:06;99139.88;;;20.25;70.96
75063;BME280;63981;51.052;13.754;2023-08-06T11:39:33;99137.81;;;20.27;71.97
75063;BME280;63981;51.052;13.754;2023-08-06T11:41:59;99140.50;;;20.06;71.46
75063;BME280;63981;51.052;13.754;2023-08-06T11:44:30;99132.97;;;19.95;72.45
75063;BME280;63981;51.052;13.754;2023-08-06T11:47:01;99129.66;;;19.93;72.25
75063;BME280;63981;51.052;13.754;2023-08-06T11:49:43;99138.78;;;19.84;70.97
75063;BME280;63981;51.052;13.754;2023-08-06T11:52:14;99136.78;;;19.71;71.88
75063;BME280;63981;51.052;13.754;2023-08-06T11:54:42;99133.63;;;19.82;72.72
75063;BME280;63981;51.052;13.754;2023-08-06T11:57:08;99134.47;;;19.83;72.80
75063;BME280;63981;51.052;13.754;2023-08-06T11:59:37;99137.69;;;19.78;72.84
75063;BME280;63981;51.052;13.754;2023-08-06T12:02:04;99139.84;;;19.68;73.67
75063;BME280;63981;51.052;13.754;2023-08-06T12:05:02;99136.97;;;19.69;73.49
75063;BME280;63981;51.052;13.754;2023-08-06T12:07:31;99131.16;;;19.81;73.22
75063;BME280;63981;51.052;13.754;2023-08-06T12:09:58;99121.50;;;20.01;72.89
75063;BME280;63981;51.052;13.754;2023-08-06T12:12:25;99126.97;;;20.14;68.89
75063;BME280;63981;51.052;13.754;2023-08-06T12:14:51;99126.03;;;20.22;71.07
75063;BME280;63981;51.052;13.754;2023-08-06T12:17:18;99131.44;;;20.07;69.98
75063;BME280;63981;51.052;13.754;2023-08-06T12:19:45;99126.97;;;19.93;70.77
75063;BME280;63981;51.052;13.754;2023-08-06T12:22:14;99128.53;;;19.87;70.32
75063;BME280;63981;51.052;13.754;2023-08-06T12:24:41;99121.25;;;19.96;69.50
75063;BME280;63981;51.052;13.754;2023-08-06T12:27:07;99126.47;;;20.04;71.14
75063;BME280;63981;51.052;13.754;2023-08-06T12:29:34;99129.03;;;20.12;68.98
75063;BME280;63981;51.052;13.754;2023-08-06T12:32:00;99125.41;;;20.20;69.96
75063;BME280;63981;51.052;13.754;2023-08-06T12:34:26;99128.97;;;20.06;70.47
75063;BME280;63981;51.052;13.754;2023-08-06T12:36:52;99123.72;;;19.97;70.46
75063;BME280;63981;51.052;13.754;2023-08-06T12:39:20;99123.03;;;20.10;69.85
75063;BME280;63981;51.052;13.754;2023-08-06T12:41:46;99116.09;;;20.16;69.45
75063;BME280;63981;51.052;13.754;2023-08-06T12:44:13;99112.53;;;20.09;70.14
75063;BME280;63981;51.052;13.754;2023-08-06T12:46:39;99111.69;;;20.08;69.93
75063;BME280;63981;51.052;13.754;2023-08-06T12:49:05;99109.13;;;20.00;71.11
75063;BME280;63981;51.052;13.754;2023-08-06T12:51:32;99098.97;;;20.10;70.58